Time;durP1;ratioP1;P1;durP2;ratioP2;P2;SDS_P1;SDS_P2;PMS_P1;PMS_P2;Temp;Humidity;BMP_temperature;BMP_pressure;BME280_temperature;BME280_humidity;BME280_pressure;Samples;Min_cycle;Max_cycle;Signal;HPM_P1;HPM_P2
2023/07/21 00:00:58;;;;;;;14.68;7.70;;;24.90;99.90;;;;;;5087579;28;20599;-54
2023/07/21 00:03:24;;;;;;;12.27;7.22;;;25.40;99.90;;;;;;5092165;28;20040;-54
2023/07/21 00:05:50;;;;;;;10.43;6.85;;;24.90;99.90;;;;;;5092223;28;20039;-55
2023/07/21 00:08:16;;;;;;;13.45;8.07;;;24.90;99.90;;;;;;5084165;28;20028;-54
2023/07/21 00:10:43;;;;;;;9.45;6.47;;;24.80;99.90;;;;;;5054863;28;20483;-54
2023/07/21 00:13:09;;;;;;;11.88;7.38;;;24.90;99.90;;;;;;5057389;28;20988;-54
2023/07/21 00:15:35;;;;;;;12.57;6.90;;;24.90;99.90;;;;;;5074570;28;20038;-54
2023/07/21 00:18:01;;;;;;;14.15;7.53;;;24.90;99.90;;;;;;5092121;28;20028;-55
2023/07/21 00:20:29;;;;;;;14.77;7.25;;;24.90;99.90;;;;;;5062882;28;20596;-55
2023/07/21 00:22:54;;;;;;;11.63;6.38;;;25.00;99.90;;;;;;5073042;28;20036;-55
2023/07/21 00:25:20;;;;;;;11.20;6.38;;;25.00;99.90;;;;;;5071349;28;20031;-54
2023/07/21 00:27:46;;;;;;;13.85;6.43;;;25.00;99.90;;;;;;5080837;28;20032;-55
2023/07/21 00:30:12;;;;;;;12.43;6.82;;;25.00;99.90;;;;;;5042248;28;20044;-54
2023/07/21 00:32:40;;;;;;;11.02;6.70;;;25.00;99.90;;;;;;5038433;28;20041;-55
2023/07/21 00:35:08;;;;;;;12.38;6.45;;;24.90;99.90;;;;;;5030302;28;20044;-55
2023/07/21 00:37:34;;;;;;;13.63;6.68;;;25.00;99.90;;;;;;5031823;28;20038;-55
2023/07/21 00:40:03;;;;;;;10.73;6.28;;;25.00;99.90;;;;;;5031527;28;20045;-55
2023/07/21 00:42:29;;;;;;;13.65;7.25;;;24.90;99.90;;;;;;5031431;28;20469;-55
2023/07/21 00:44:56;;;;;;;10.45;6.72;;;24.80;99.90;;;;;;5024093;28;20041;-55
2023/07/21 00:47:23;;;;;;;16.67;7.53;;;24.90;99.90;;;;;;5037503;28;20045;-54
2023/07/21 00:49:49;;;;;;;11.85;6.85;;;24.60;99.90;;;;;;5036649;28;20059;-54
2023/07/21 00:52:18;;;;;;;11.13;6.80;;;24.70;99.90;;;;;;5047810;28;20191;-54
2023/07/21 00:54:44;;;;;;;13.50;6.38;;;24.80;99.90;;;;;;5034620;28;20045;-54
2023/07/21 00:57:11;;;;;;;13.50;6.75;;;25.00;99.90;;;;;;5037421;28;20028;-55
2023/07/21 00:59:38;;;;;;;12.63;6.68;;;25.00;99.90;;;;;;5036746;28;20108;-55
2023/07/21 01:02:05;;;;;;;12.27;6.78;;;25.00;99.90;;;;;;5036964;28;20040;-55
2023/07/21 01:04:31;;;;;;;12.18;6.93;;;24.90;99.90;;;;;;5053131;28;20482;-55
2023/07/21 01:06:59;;;;;;;12.00;6.30;;;25.00;99.90;;;;;;5034344;28;20044;-55
2023/07/21 01:09:27;;;;;;;13.27;7.03;;;24.90;99.90;;;;;;5040480;28;20415;-55
2023/07/21 01:11:54;;;;;;;8.30;5.65;;;24.90;99.90;;;;;;5041448;28;20071;-54
2023/07/21 01:14:20;;;;;;;10.82;5.88;;;24.80;99.90;;;;;;5038402;28;20381;-55
2023/07/21 01:16:47;;;;;;;13.32;7.07;;;24.70;99.90;;;;;;5040262;28;20033;-55
2023/07/21 01:19:15;;;;;;;11.55;6.75;;;24.60;99.90;;;;;;5039783;28;20033;-54
2023/07/21 01:21:48;;;;;;;11.25;6.18;;;24.40;99.90;;;;;;5052916;28;20053;-55
2023/07/21 01:24:20;;;;;;;8.88;6.30;;;24.00;99.90;;;;;;5039118;28;20075;-55
2023/07/21 01:26:48;;;;;;;11.02;6.38;;;;;;;;;;5039119;28;20116;-55
2023/07/21 01:29:16;;;;;;;11.13;5.70;;;23.10;99.90;;;;;;5038432;28;20039;-56
2023/07/21 01:31:43;;;;;;;8.98;6.20;;;22.90;99.90;;;;;;5039308;28;20025;-55
2023/07/21 01:34:10;;;;;;;9.05;6.50;;;22.90;99.90;;;;;;5040324;28;20031;-54
2023/07/21 01:36:37;;;;;;;9.48;5.88;;;23.00;99.90;;;;;;5039380;28;20040;-54
2023/07/21 01:39:04;;;;;;;8.15;5.65;;;23.00;99.90;;;;;;5039037;28;20045;-54
2023/07/21 01:41:31;;;;;;;7.28;5.47;;;23.30;99.90;;;;;;5038861;28;20045;-55
2023/07/21 01:43:57;;;;;;;9.93;6.25;;;23.40;99.90;;;;;;5039207;28;20562;-54
2023/07/21 01:46:22;;;;;;;9.45;6.63;;;23.20;99.90;;;;;;5036621;28;20139;-55
2023/07/21 01:48:48;;;;;;;7.00;5.25;;;23.20;99.90;;;;;;5039076;28;20030;-55
2023/07/21 01:51:20;;;;;;;9.10;6.32;;;23.40;99.90;;;;;;5037729;28;20184;-55
2023/07/21 01:53:53;;;;;;;10.57;5.93;;;23.60;99.90;;;;;;5038216;28;20475;-55
2023/07/21 01:56:30;;;;;;;8.95;5.80;;;23.60;99.90;;;;;;5037698;28;20064;-54
2023/07/21 01:59:02;;;;;;;7.65;5.75;;;23.60;99.90;;;;;;5037961;28;20362;-55
2023/07/21 02:01:29;;;;;;;8.13;6.43;;;23.40;99.90;;;;;;5039297;28;20049;-55
2023/07/21 02:03:55;;;;;;;7.63;5.82;;;23.50;99.90;;;;;;5037828;28;20038;-55
2023/07/21 02:06:20;;;;;;;14.70;6.03;;;23.70;99.90;;;;;;5038230;28;20040;-54
2023/07/21 02:08:46;;;;;;;7.97;5.55;;;23.80;99.90;;;;;;5038765;28;20029;-55
2023/07/21 02:11:12;;;;;;;10.05;5.72;;;24.00;99.90;;;;;;5039515;28;20060;-55
2023/07/21 02:13:39;;;;;;;10.05;5.78;;;24.10;99.90;;;;;;5035924;28;20037;-56
2023/07/21 02:16:05;;;;;;;9.90;5.72;;;24.20;99.90;;;;;;5039186;28;20029;-56
2023/07/21 02:18:33;;;;;;;8.90;5.60;;;24.10;99.90;;;;;;5038514;28;20032;-55
2023/07/21 02:21:02;;;;;;;6.60;5.70;;;24.10;99.90;;;;;;5020522;28;20044;-54
2023/07/21 02:23:28;;;;;;;9.57;5.75;;;24.10;99.90;;;;;;5056106;28;20035;-55
2023/07/21 02:25:54;;;;;;;7.97;5.10;;;24.20;99.90;;;;;;5056601;28;20074;-55
2023/07/21 02:28:20;;;;;;;8.23;5.60;;;24.30;99.90;;;;;;5052526;28;20041;-54
2023/07/21 02:30:46;;;;;;;9.45;5.05;;;24.40;99.90;;;;;;5055874;28;20051;-55
2023/07/21 02:33:12;;;;;;;13.57;5.75;;;24.50;99.90;;;;;;5039403;28;20041;-54
2023/07/21 02:35:37;;;;;;;7.43;5.50;;;24.40;99.90;;;;;;5057534;28;20093;-54
2023/07/21 02:38:05;;;;;;;7.35;5.43;;;24.30;99.90;;;;;;5055791;28;20045;-55
2023/07/21 02:40:31;;;;;;;7.93;5.38;;;24.20;99.90;;;;;;5054772;28;20061;-54
2023/07/21 02:42:58;;;;;;;9.10;5.85;;;24.10;99.90;;;;;;5039315;28;20036;-55
2023/07/21 02:45:23;;;;;;;11.63;6.03;;;24.10;99.90;;;;;;5056358;28;20048;-55
2023/07/21 02:47:49;;;;;;;8.77;5.97;;;24.00;99.90;;;;;;5055703;28;20043;-55
2023/07/21 02:50:16;;;;;;;14.48;7.22;;;24.00;99.90;;;;;;5073238;28;20029;-55
2023/07/21 02:52:42;;;;;;;11.90;5.35;;;23.90;99.90;;;;;;5041333;28;20037;-54
2023/07/21 02:55:08;;;;;;;10.57;6.00;;;23.90;99.90;;;;;;5037723;28;20033;-55
2023/07/21 02:57:34;;;;;;;11.55;6.05;;;24.00;99.90;;;;;;5087533;28;20030;-55
2023/07/21 03:00:03;;;;;;;11.48;6.05;;;24.00;99.90;;;;;;5037404;28;20049;-55
2023/07/21 03:02:30;;;;;;;10.20;6.70;;;24.10;99.90;;;;;;5038063;28;20570;-54
2023/07/21 03:04:57;;;;;;;7.75;5.47;;;23.90;99.90;;;;;;5037367;28;20132;-54
2023/07/21 03:07:23;;;;;;;10.82;6.00;;;23.70;99.90;;;;;;5038093;28;20056;-55
2023/07/21 03:09:48;;;;;;;9.95;5.85;;;23.30;99.90;;;;;;5053024;28;20041;-54
2023/07/21 03:12:14;;;;;;;10.15;6.47;;;;;;;;;;5035130;28;20527;-54
2023/07/21 03:14:41;;;;;;;10.07;5.97;;;;;;;;;;5037206;28;20025;-55
2023/07/21 03:17:07;;;;;;;11.18;6.65;;;;;;;;;;5034923;28;20041;-55
2023/07/21 03:19:32;;;;;;;13.60;6.90;;;22.60;99.90;;;;;;5037939;28;20033;-55
2023/07/21 03:21:59;;;;;;;8.90;6.55;;;22.40;99.90;;;;;;5053399;28;20037;-55
2023/07/21 03:24:25;;;;;;;8.13;5.80;;;22.20;99.90;;;;;;5038837;28;20042;-54
2023/07/21 03:26:51;;;;;;;10.98;6.85;;;22.20;99.90;;;;;;5032926;28;20416;-54
2023/07/21 03:29:17;;;;;;;8.70;6.40;;;21.90;99.90;;;;;;5052245;28;20056;-54
2023/07/21 03:31:43;;;;;;;9.40;5.45;;;;;;;;;;5052074;28;20045;-55
2023/07/21 03:34:09;;;;;;;8.52;5.97;;;;;;;;;;5037682;28;20144;-54
2023/07/21 03:36:36;;;;;;;8.57;6.13;;;;;;;;;;5037152;28;20040;-54
2023/07/21 03:39:01;;;;;;;9.10;5.78;;;21.30;99.90;;;;;;5035317;28;20491;-54
2023/07/21 03:41:27;;;;;;;7.97;5.35;;;;;;;;;;5036084;28;20212;-55
2023/07/21 03:43:53;;;;;;;8.57;5.15;;;21.00;99.90;;;;;;5036536;28;20037;-54
2023/07/21 03:46:19;;;;;;;6.00;5.00;;;21.00;99.90;;;;;;5038063;28;20452;-54
2023/07/21 03:48:45;;;;;;;9.93;5.57;;;21.00;99.90;;;;;;5036798;28;20499;-54
2023/07/21 03:51:11;;;;;;;7.95;5.53;;;21.00;99.90;;;;;;5036557;28;20039;-55
2023/07/21 03:53:36;;;;;;;8.57;5.07;;;21.10;99.90;;;;;;5037952;28;20101;-54
2023/07/21 03:56:02;;;;;;;8.65;5.10;;;21.10;99.90;;;;;;5037804;28;20128;-54
2023/07/21 03:58:28;;;;;;;11.80;5.32;;;21.10;99.90;;;;;;5036821;28;20052;-54
2023/07/21 04:00:55;;;;;;;9.25;5.72;;;21.20;99.90;;;;;;5051377;28;20073;-54
2023/07/21 04:03:21;;;;;;;8.27;5.15;;;21.20;99.90;;;;;;5051713;28;20492;-54
2023/07/21 04:05:46;;;;;;;9.40;5.10;;;21.30;99.90;;;;;;5037346;28;20065;-56
2023/07/21 04:08:13;;;;;;;9.15;5.72;;;21.30;99.90;;;;;;5039111;28;20052;-54
2023/07/21 04:10:42;;;;;;;7.53;5.53;;;21.30;99.90;;;;;;5040680;28;20112;-54
2023/07/21 04:13:08;;;;;;;6.90;5.05;;;21.60;99.90;;;;;;5041590;28;20385;-54
2023/07/21 04:15:33;;;;;;;8.18;5.25;;;21.70;99.90;;;;;;5041970;28;20025;-54
2023/07/21 04:17:59;;;;;;;7.35;4.80;;;21.80;99.90;;;;;;5039360;28;20025;-54
2023/07/21 04:20:25;;;;;;;7.68;5.35;;;22.00;99.90;;;;;;5037880;28;20051;-54
2023/07/21 04:22:51;;;;;;;7.72;5.20;;;22.10;99.90;;;;;;5040957;28;20490;-56
2023/07/21 04:25:18;;;;;;;7.28;5.03;;;;;;;;;;5072477;28;20041;-54
2023/07/21 04:27:50;;;;;;;7.70;5.20;;;22.70;99.90;;;;;;5041241;28;20033;-54
2023/07/21 04:30:16;;;;;;;9.38;5.45;;;22.90;99.90;;;;;;5039657;28;20095;-54
2023/07/21 04:32:42;;;;;;;14.82;5.57;;;23.20;99.90;;;;;;5039890;28;20044;-55
2023/07/21 04:35:08;;;;;;;13.93;5.47;;;23.50;99.90;;;;;;5043754;28;20455;-55
2023/07/21 04:37:38;;;;;;;9.77;5.80;;;23.70;99.90;;;;;;5042143;28;20025;-54
2023/07/21 04:40:06;;;;;;;12.00;5.15;;;23.80;99.90;;;;;;5041847;28;20135;-54
2023/07/21 04:42:32;;;;;;;13.48;5.35;;;23.90;99.90;;;;;;5057281;28;20045;-54
2023/07/21 04:44:59;;;;;;;14.88;5.78;;;24.10;99.90;;;;;;5042922;28;20103;-55
2023/07/21 04:47:25;;;;;;;9.18;4.82;;;24.20;99.90;;;;;;5040523;28;20111;-54
2023/07/21 04:49:53;;;;;;;10.55;5.43;;;24.40;99.90;;;;;;5041702;28;20615;-54
2023/07/21 04:52:19;;;;;;;11.00;6.95;;;24.40;99.90;;;;;;5041525;28;20037;-55
2023/07/21 04:54:45;;;;;;;9.90;6.03;;;24.40;99.90;;;;;;5036187;28;20041;-54
2023/07/21 04:57:11;;;;;;;8.82;5.47;;;24.50;99.90;;;;;;5042489;28;20082;-54
2023/07/21 04:59:37;;;;;;;9.18;5.55;;;24.70;99.90;;;;;;5052397;28;20084;-55
2023/07/21 05:02:03;;;;;;;7.47;5.20;;;24.80;99.90;;;;;;5039228;28;20529;-55
2023/07/21 05:04:29;;;;;;;7.68;5.28;;;24.80;99.90;;;;;;5054891;28;20459;-54
2023/07/21 05:06:54;;;;;;;10.23;5.38;;;25.00;99.90;;;;;;5043088;28;20033;-55
2023/07/21 05:09:20;;;;;;;12.38;6.47;;;25.00;99.90;;;;;;5042875;28;20624;-54
2023/07/21 05:11:46;;;;;;;10.05;6.20;;;24.80;99.90;;;;;;5022994;28;20056;-54
2023/07/21 05:14:13;;;;;;;9.90;6.47;;;24.60;99.90;;;;;;5040140;28;20029;-54
2023/07/21 05:16:39;;;;;;;9.70;5.97;;;24.50;99.90;;;;;;5039797;28;20086;-54
2023/07/21 05:19:05;;;;;;;9.18;6.18;;;24.30;99.90;;;;;;5038124;28;20033;-54
2023/07/21 05:21:30;;;;;;;11.20;6.18;;;24.50;99.90;;;;;;5040009;28;20052;-57
2023/07/21 05:23:56;;;;;;;9.02;5.32;;;24.50;99.90;;;;;;5062274;28;20076;-53
2023/07/21 05:26:22;;;;;;;8.88;5.53;;;24.60;99.90;;;;;;5044494;28;20509;-53
2023/07/21 05:28:53;;;;;;;7.85;5.40;;;24.70;99.90;;;;;;5038035;28;20045;-56
2023/07/21 05:31:19;;;;;;;8.57;5.28;;;24.80;99.90;;;;;;5039722;28;20377;-56
2023/07/21 05:33:45;;;;;;;7.70;5.43;;;24.90;99.90;;;;;;5051344;28;20033;-51
2023/07/21 05:36:11;;;;;;;11.25;5.88;;;25.00;99.90;;;;;;5038297;28;20032;-53
2023/07/21 05:38:37;;;;;;;6.43;4.82;;;24.80;99.90;;;;;;5037307;28;20085;-56
2023/07/21 05:41:04;;;;;;;15.57;5.68;;;24.70;99.90;;;;;;5040122;28;20068;-54
2023/07/21 05:43:30;;;;;;;7.72;4.68;;;25.10;99.90;;;;;;5039399;28;20025;-54
2023/07/21 05:45:56;;;;;;;8.13;4.85;;;25.00;99.90;;;;;;5038700;28;20052;-56
2023/07/21 05:48:24;;;;;;;6.85;5.03;;;25.00;99.90;;;;;;5039185;28;20033;-54
2023/07/21 05:50:50;;;;;;;6.57;3.97;;;25.00;99.90;;;;;;5039370;28;20083;-51
2023/07/21 05:53:16;;;;;;;6.20;4.18;;;25.20;99.90;;;;;;5039545;28;20013;-59
2023/07/21 05:55:43;;;;;;;5.57;4.07;;;;;;;;;;5039745;28;20037;-53
2023/07/21 05:58:09;;;;;;;5.47;4.10;;;;;;;;;;5034559;28;20132;-53
2023/07/21 06:00:45;;;;;;;6.03;4.43;;;;;;;;;;5039626;28;20057;-54
2023/07/21 06:03:11;;;;;;;6.25;4.35;;;26.30;99.90;;;;;;5039107;28;20032;-57
2023/07/21 06:05:37;;;;;;;6.47;4.07;;;;;;;;;;5039723;28;20030;-56
2023/07/21 06:08:04;;;;;;;7.13;4.80;;;;;;;;;;5039507;28;20055;-59
2023/07/21 06:10:30;;;;;;;6.65;4.55;;;;;;;;;;5038638;28;20043;-55
2023/07/21 06:12:57;;;;;;;7.40;4.85;;;;;;;;;;5039144;28;20065;-52
2023/07/21 06:15:24;;;;;;;8.25;5.35;;;26.70;99.90;;;;;;5038315;28;20037;-55
2023/07/21 06:17:50;;;;;;;7.47;5.10;;;;;;;;;;5038334;28;20086;-56
2023/07/21 06:20:16;;;;;;;8.40;4.90;;;;;;;;;;5052042;28;20122;-54
2023/07/21 06:22:42;;;;;;;6.20;4.20;;;;;;;;;;5037683;28;20123;-51
2023/07/21 06:25:09;;;;;;;6.68;4.35;;;;;;;;;;5050776;28;20400;-57
2023/07/21 06:27:35;;;;;;;9.07;4.28;;;;;;;;;;5038251;28;20029;-54
2023/07/21 06:30:01;;;;;;;7.45;4.72;;;;;;;;;;5040018;28;20036;-53
2023/07/21 06:32:27;;;;;;;7.00;4.85;;;;;;;;;;5037270;28;20032;-58
2023/07/21 06:34:53;;;;;;;5.25;4.00;;;;;;;;;;5033687;28;20052;-51
2023/07/21 06:37:19;;;;;;;6.35;4.53;;;;;;;;;;5038732;28;20116;-54
2023/07/21 06:39:48;;;;;;;7.20;4.70;;;;;;;;;;5038906;28;20033;-56
2023/07/21 06:42:15;;;;;;;6.88;4.57;;;;;;;;;;5038555;28;20681;-54
2023/07/21 06:44:41;;;;;;;7.30;4.20;;;27.50;99.90;;;;;;5037996;28;20030;-56
2023/07/21 06:47:07;;;;;;;8.25;4.55;;;27.50;99.90;;;;;;5040787;28;20036;-53
2023/07/21 06:49:33;;;;;;;6.97;4.40;;;;;;;;;;5039055;28;20039;-54
2023/07/21 07:04:10;;;;;;;6.93;4.60;;;;;;;;;;5108458;27;20442;-54
2023/07/21 07:06:36;;;;;;;6.10;4.25;;;28.20;99.90;;;;;;5088431;28;20044;-54
2023/07/21 07:09:02;;;;;;;7.90;4.40;;;28.30;99.90;;;;;;5089607;28;20044;-58
2023/07/21 07:11:27;;;;;;;8.13;4.57;;;28.00;99.90;;;;;;5104014;28;20043;-54
2023/07/21 07:13:54;;;;;;;7.18;4.15;;;28.20;99.90;;;;;;5103925;28;20032;-57
2023/07/21 07:16:20;;;;;;;5.25;3.30;;;28.20;99.90;;;;;;5089211;28;20107;-52
2023/07/21 07:18:45;;;;;;;6.60;3.85;;;28.30;99.90;;;;;;5087122;28;20066;-56
2023/07/21 07:21:12;;;;;;;8.32;4.50;;;;;;;;;;5089204;28;20103;-58
2023/07/21 07:23:38;;;;;;;6.78;3.78;;;28.80;99.90;;;;;;5089617;28;20034;-55
2023/07/21 07:26:05;;;;;;;9.00;4.20;;;;;;;;;;5089224;28;20029;-57
2023/07/21 07:28:31;;;;;;;5.95;4.05;;;;;;;;;;5089270;28;20059;-55
2023/07/21 07:30:57;;;;;;;5.28;3.92;;;;;;;;;;5087078;28;20036;-54
2023/07/21 07:33:23;;;;;;;5.57;3.83;;;;;;;;;;5103414;28;20123;-57
2023/07/21 07:35:53;;;;;;;8.20;3.85;;;;;;;;;;5086623;28;20033;-58
2023/07/21 07:38:20;;;;;;;5.70;3.60;;;;;;;;;;5088603;28;20115;-57
2023/07/21 07:40:47;;;;;;;5.22;3.33;;;;;;;;;;5083466;28;20031;-59
2023/07/21 07:43:13;;;;;;;6.45;3.78;;;;;;;;;;5088814;28;20021;-56
2023/07/21 07:45:39;;;;;;;6.43;3.50;;;29.60;99.90;;;;;;5088670;28;20032;-54
2023/07/21 07:48:07;;;;;;;6.65;3.70;;;29.70;99.90;;;;;;5102585;28;20059;-57
2023/07/21 07:50:37;;;;;;;7.60;3.70;;;29.70;99.90;;;;;;5088443;28;20071;-55
2023/07/21 07:53:02;;;;;;;4.50;4.00;;;29.80;99.90;;;;;;5088824;28;20048;-59
2023/07/21 07:55:28;;;;;;;5.35;3.38;;;29.80;99.90;;;;;;5086217;28;20033;-57
2023/07/21 07:57:55;;;;;;;5.85;3.72;;;;;;;;;;5086476;28;20044;-57
2023/07/21 08:00:22;;;;;;;6.72;3.97;;;;;;;;;;5088827;28;20032;-57
2023/07/21 08:02:48;;;;;;;5.88;3.60;;;;;;;;;;5069390;28;20036;-55
2023/07/21 08:05:14;;;;;;;7.15;3.85;;;;;;;;;;5072531;28;20060;-53
2023/07/21 08:07:40;;;;;;;6.57;4.03;;;30.40;99.90;;;;;;5072779;28;20071;-55
2023/07/21 08:10:06;;;;;;;7.53;3.88;;;30.60;99.90;;;;;;5055793;28;20515;-55
2023/07/21 08:12:32;;;;;;;6.57;3.88;;;30.60;99.90;;;;;;5074505;28;20041;-55
2023/07/21 08:14:58;;;;;;;6.75;3.50;;;30.40;99.90;;;;;;5072493;28;20112;-56
2023/07/21 08:17:23;;;;;;;6.95;4.28;;;30.00;99.90;;;;;;5055647;28;20472;-57
2023/07/21 08:19:49;;;;;;;5.22;3.80;;;30.30;99.90;;;;;;5039171;28;20433;-53
2023/07/21 08:22:15;;;;;;;5.70;3.63;;;30.50;99.90;;;;;;5072413;28;20081;-55
2023/07/21 08:24:40;;;;;;;5.57;3.75;;;30.20;99.90;;;;;;5074472;28;20026;-57
2023/07/21 08:27:08;;;;;;;4.95;3.65;;;30.30;99.90;;;;;;5074633;28;20158;-54
2023/07/21 08:29:34;;;;;;;6.68;4.47;;;30.50;99.90;;;;;;5074681;28;20028;-55
2023/07/21 08:32:00;;;;;;;5.65;3.47;;;30.30;99.90;;;;;;5074286;28;20369;-54
2023/07/21 08:34:26;;;;;;;5.20;3.80;;;30.60;99.90;;;;;;5074283;28;20416;-54
2023/07/21 08:36:52;;;;;;;6.70;3.80;;;;;;;;;;5072177;28;20058;-54
2023/07/21 08:39:18;;;;;;;5.28;4.22;;;;;;;;;;5074218;28;20074;-58
2023/07/21 08:41:49;;;;;;;4.63;3.70;;;;;;;;;;5074567;28;20032;-56
2023/07/21 08:44:16;;;;;;;5.40;3.70;;;;;;;;;;5074084;28;20086;-55
2023/07/21 08:46:42;;;;;;;6.05;4.15;;;;;;;;;;5074010;28;20044;-58
2023/07/21 08:49:08;;;;;;;4.88;3.72;;;;;;;;;;5074315;28;20024;-55
2023/07/21 08:51:37;;;;;;;5.97;4.72;;;31.60;99.90;;;;;;5073923;28;20379;-53
2023/07/21 08:54:03;;;;;;;5.15;3.83;;;;;;;;;;5073974;28;20535;-54
2023/07/21 08:56:29;;;;;;;12.73;3.75;;;;;;;;;;5073916;28;20024;-56
2023/07/21 08:58:55;;;;;;;7.50;4.00;;;;;;;;;;5073901;28;20024;-54
2023/07/21 09:01:22;;;;;;;5.72;3.70;;;;;;;;;;5074078;28;20029;-58
2023/07/21 09:03:48;;;;;;;6.50;4.20;;;;;;;;;;5073629;28;20071;-56
2023/07/21 09:06:14;;;;;;;6.00;4.28;;;;;;;;;;5073582;28;20062;-57
2023/07/21 09:08:40;;;;;;;5.85;4.18;;;;;;;;;;5072313;28;20032;-53
2023/07/21 09:11:08;;;;;;;5.78;4.15;;;;;;;;;;5073895;28;20032;-52
2023/07/21 09:13:34;;;;;;;6.30;4.22;;;;;;;;;;5073627;28;20055;-59
2023/07/21 09:16:01;;;;;;;7.15;4.15;;;;;;;;;;5070500;28;20514;-57
2023/07/21 09:18:31;;;;;;;6.45;4.32;;;;;;;;;;5062002;28;20082;-57
2023/07/21 09:20:58;;;;;;;6.57;4.00;;;;;;;;;;5073061;28;20056;-55
2023/07/21 09:23:26;;;;;;;7.07;4.55;;;;;;;;;;5070358;28;20031;-54
2023/07/21 09:25:56;;;;;;;5.95;4.05;;;;;;;;;;5071037;28;20127;-53
2023/07/21 09:28:41;;;;;;;7.97;4.60;;;;;;;;;;5072566;28;20020;-56
2023/07/21 09:31:08;;;;;;;7.60;4.35;;;33.30;99.90;;;;;;5069047;28;20413;-53
2023/07/21 09:33:38;;;;;;;5.78;4.22;;;33.40;99.90;;;;;;5059591;28;20123;-56
2023/07/21 09:36:08;;;;;;;6.13;4.47;;;33.20;99.90;;;;;;5059021;28;20051;-54
2023/07/21 09:38:35;;;;;;;5.28;4.10;;;33.50;99.90;;;;;;5029944;28;20528;-53
2023/07/21 09:41:09;;;;;;;6.13;3.88;;;33.70;99.90;;;;;;5030171;28;20562;-54
2023/07/21 09:43:36;;;;;;;7.72;4.07;;;33.30;99.90;;;;;;5013289;28;20552;-55
2023/07/21 09:46:03;;;;;;;7.47;4.53;;;33.30;99.90;;;;;;5024646;28;20048;-56
2023/07/21 09:48:30;;;;;;;7.65;4.32;;;33.20;99.90;;;;;;5021612;28;20033;-56
2023/07/21 09:51:04;;;;;;;7.90;4.35;;;33.30;99.90;;;;;;5025999;28;20083;-56
2023/07/21 09:53:35;;;;;;;7.35;4.43;;;;;;;;;;5024541;28;20049;-57
2023/07/21 09:56:03;;;;;;;7.35;4.30;;;34.40;99.90;;;;;;5028325;28;20798;-56
2023/07/21 09:58:30;;;;;;;4.90;3.50;;;34.00;99.90;;;;;;5028742;28;20042;-56
2023/07/21 10:01:03;;;;;;;8.55;4.68;;;34.30;99.90;;;;;;5029084;28;20082;-58
2023/07/21 10:03:31;;;;;;;5.80;4.53;;;33.90;99.90;;;;;;5027703;28;20441;-58
2023/07/21 10:05:58;;;;;;;7.35;4.32;;;34.30;99.90;;;;;;5029282;28;20037;-55
2023/07/21 10:08:27;;;;;;;9.43;4.60;;;34.30;99.90;;;;;;5025170;28;20041;-53
2023/07/21 10:10:58;;;;;;;8.73;4.95;;;34.10;99.90;;;;;;5052688;28;20399;-55
2023/07/21 10:13:28;;;;;;;10.10;5.03;;;34.30;99.90;;;;;;5070652;28;20379;-56
2023/07/21 10:16:06;;;;;;;10.27;4.65;;;34.70;99.90;;;;;;5071166;28;20063;-55
2023/07/21 10:18:32;;;;;;;9.35;4.50;;;35.10;99.90;;;;;;5069557;28;20040;-57
2023/07/21 10:20:57;;;;;;;7.30;4.68;;;34.90;99.90;;;;;;5071822;28;20035;-59
2023/07/21 10:23:29;;;;;;;9.68;5.25;;;35.40;99.90;;;;;;5049202;28;20040;-57
2023/07/21 10:25:58;;;;;;;5.80;4.05;;;35.70;99.90;;;;;;5039983;28;20106;-54
2023/07/21 10:28:31;;;;;;;7.72;4.20;;;35.80;99.90;;;;;;5049941;28;20052;-56
2023/07/21 10:31:24;;;;;;;5.47;4.63;;;34.50;99.90;;;;;;5049596;28;20037;-55
2023/07/21 10:34:10;;;;;;;6.25;4.55;;;34.90;99.90;;;;;;5049728;28;20055;-54
2023/07/21 10:36:49;;;;;;;5.28;3.85;;;35.40;99.90;;;;;;5047889;28;20035;-54
2023/07/21 10:39:16;;;;;;;7.47;4.60;;;34.60;99.90;;;;;;5039921;28;20040;-55
2023/07/21 10:41:43;;;;;;;6.13;4.15;;;35.10;99.90;;;;;;5049493;28;20407;-55
2023/07/21 10:44:11;;;;;;;8.20;4.43;;;35.40;99.90;;;;;;5049497;28;20047;-55
2023/07/21 10:46:37;;;;;;;9.70;4.45;;;35.90;99.90;;;;;;5049655;28;20029;-55
2023/07/21 10:49:03;;;;;;;9.05;4.15;;;35.90;99.90;;;;;;5045705;28;20632;-56
2023/07/21 10:51:29;;;;;;;8.95;4.13;;;36.30;99.90;;;;;;5041878;28;20122;-55
2023/07/21 10:53:56;;;;;;;5.85;4.18;;;36.30;99.90;;;;;;5054824;28;20082;-57
2023/07/21 10:56:22;;;;;;;5.68;4.45;;;36.30;99.90;;;;;;5070300;28;20111;-53
2023/07/21 10:58:49;;;;;;;7.60;4.95;;;36.60;99.90;;;;;;5067224;28;20028;-55
2023/07/21 11:01:22;;;;;;;8.80;4.78;;;36.70;99.90;;;;;;5035154;28;20503;-55
2023/07/21 11:03:48;;;;;;;5.07;3.13;;;37.10;99.90;;;;;;5064509;28;20114;-56
2023/07/21 11:06:14;;;;;;;6.63;4.88;;;36.50;99.90;;;;;;5071128;28;20024;-57
2023/07/21 11:08:40;;;;;;;8.35;4.90;;;35.10;99.90;;;;;;5049997;28;20041;-56
2023/07/21 11:11:08;;;;;;;8.82;4.20;;;35.70;99.90;;;;;;5069949;28;20368;-56
2023/07/21 11:13:34;;;;;;;8.00;4.20;;;36.30;99.90;;;;;;5070989;28;20063;-55
2023/07/21 11:16:00;;;;;;;4.80;3.67;;;36.70;99.90;;;;;;5069359;28;20663;-56
2023/07/21 11:18:28;;;;;;;7.47;4.10;;;37.10;99.90;;;;;;5066159;28;20033;-54
2023/07/21 11:20:55;;;;;;;7.18;3.50;;;37.40;99.90;;;;;;5070557;28;20032;-55
2023/07/21 11:23:24;;;;;;;7.53;3.55;;;36.60;99.90;;;;;;5071110;28;20063;-54
2023/07/21 11:26:04;;;;;;;7.15;3.85;;;36.30;99.90;;;;;;5067601;28;20123;-55
2023/07/21 11:28:31;;;;;;;7.18;4.78;;;36.80;99.90;;;;;;5064725;28;20048;-55
2023/07/21 11:30:57;;;;;;;6.57;4.57;;;37.00;99.90;;;;;;5070748;28;20128;-55
2023/07/21 11:33:23;;;;;;;11.45;4.18;;;36.60;99.90;;;;;;5051761;28;20123;-56
2023/07/21 11:35:50;;;;;;;6.40;3.75;;;36.60;99.90;;;;;;5071706;28;20032;-57
2023/07/21 11:38:15;;;;;;;5.97;3.88;;;36.30;99.90;;;;;;5071831;28;20036;-55
2023/07/21 11:40:41;;;;;;;9.88;4.40;;;35.50;99.90;;;;;;5075534;28;20356;-56
2023/07/21 11:43:10;;;;;;;8.27;4.00;;;35.50;99.90;;;;;;5074958;28;20025;-55
2023/07/21 11:45:40;;;;;;;8.32;4.38;;;36.50;99.90;;;;;;5072960;28;20032;-55
2023/07/21 11:48:19;;;;;;;8.18;4.00;;;;;;;;;;5072240;28;20020;-56
2023/07/21 11:50:50;;;;;;;6.47;4.40;;;37.30;99.90;;;;;;5071178;28;20056;-56
2023/07/21 11:53:16;;;;;;;;;;;;;;;;;;5083454;28;20040;-56
2023/07/21 11:55:42;;;;;;;8.48;4.68;;;36.10;99.90;;;;;;5069760;28;20042;-55
2023/07/21 11:58:13;;;;;;;7.00;3.65;;;35.90;99.90;;;;;;5073249;28;20028;-57
2023/07/21 12:00:39;;;;;;;7.03;4.30;;;35.80;99.90;;;;;;5022925;28;20036;-56
2023/07/21 12:03:06;;;;;;;6.88;3.58;;;35.60;99.90;;;;;;5074835;28;20063;-57
2023/07/21 12:05:31;;;;;;;6.70;4.47;;;36.60;99.90;;;;;;5069916;28;20040;-56
2023/07/21 12:07:59;;;;;;;6.72;4.28;;;36.60;99.90;;;;;;5069748;28;20021;-56
2023/07/21 12:10:24;;;;;;;7.55;4.00;;;37.30;99.90;;;;;;5074866;28;20189;-57
2023/07/21 12:12:51;;;;;;;11.35;4.22;;;37.70;99.90;;;;;;5055046;28;20127;-57
2023/07/21 12:15:18;;;;;;;12.23;4.63;;;37.60;99.90;;;;;;5074043;28;20085;-56
2023/07/21 12:17:45;;;;;;;10.82;4.18;;;;;;;;;;5072645;28;20046;-56
2023/07/21 12:20:11;;;;;;;6.82;4.10;;;38.20;99.90;;;;;;5074128;28;20024;-56
2023/07/21 12:22:41;;;;;;;9.60;4.50;;;;;;;;;;5070186;28;20036;-56
2023/07/21 12:25:08;;;;;;;6.82;4.47;;;38.80;99.90;;;;;;5071352;28;20095;-55
2023/07/21 12:47:47;;;;;;;7.13;4.15;;;38.90;99.90;;;;;;5022003;28;20088;-55
2023/07/21 12:50:12;;;;;;;13.45;4.35;;;38.10;99.90;;;;;;5030551;28;20069;-56
2023/07/21 12:52:38;;;;;;;6.60;3.90;;;38.80;99.90;;;;;;5030734;28;20051;-56
2023/07/21 12:55:04;;;;;;;6.22;3.97;;;38.20;99.90;;;;;;5017212;28;20037;-55
2023/07/21 12:57:30;;;;;;;9.25;4.72;;;38.60;99.90;;;;;;5026407;28;20033;-55
2023/07/21 12:59:56;;;;;;;6.78;3.90;;;38.50;99.90;;;;;;5026618;28;20485;-55
2023/07/21 13:02:22;;;;;;;11.90;4.18;;;38.10;99.90;;;;;;5043156;28;20038;-55
2023/07/21 13:04:48;;;;;;;9.32;4.57;;;38.00;99.90;;;;;;5026394;28;20038;-55
2023/07/21 13:07:14;;;;;;;13.52;4.40;;;37.90;99.90;;;;;;5012301;28;20393;-55
2023/07/21 13:09:40;;;;;;;7.20;4.35;;;37.90;99.90;;;;;;5012468;28;20057;-56
2023/07/21 13:12:06;;;;;;;6.10;4.07;;;37.60;99.90;;;;;;5012106;28;20032;-58
2023/07/21 13:14:32;;;;;;;10.07;4.25;;;37.60;99.90;;;;;;5026088;28;20037;-56
2023/07/21 13:16:58;;;;;;;7.13;4.28;;;37.90;99.90;;;;;;5012168;28;20022;-55
2023/07/21 13:19:24;;;;;;;8.77;4.55;;;;;;;;;;5011919;28;20034;-56
2023/07/21 13:21:52;;;;;;;8.13;4.40;;;36.20;99.90;;;;;;5012203;28;20022;-56
2023/07/21 13:24:18;;;;;;;9.65;4.40;;;36.10;99.90;;;;;;5011628;28;20025;-57
2023/07/21 13:26:43;;;;;;;8.63;4.22;;;36.40;99.90;;;;;;5012515;28;20030;-61
2023/07/21 13:29:11;;;;;;;8.05;4.38;;;36.60;99.90;;;;;;5037978;28;20037;-60
2023/07/21 13:31:37;;;;;;;10.13;4.38;;;36.70;99.90;;;;;;5012403;28;20421;-58
2023/07/21 13:34:02;;;;;;;9.60;4.43;;;36.80;99.90;;;;;;5012513;28;20477;-59
2023/07/21 13:36:29;;;;;;;13.80;5.53;;;;;;;;;;5012344;28;20026;-55
2023/07/21 13:38:55;;;;;;;10.02;4.53;;;36.10;99.90;;;;;;5012477;28;20038;-58